Time;durP1;ratioP1;P1;durP2;ratioP2;P2;SDS_P1;SDS_P2;PMS_P1;PMS_P2;Temp;Humidity;BMP_temperature;BMP_pressure;BME280_temperature;BME280_humidity;BME280_pressure;Samples;Min_cycle;Max_cycle;Signal;HPM_P1;HPM_P2
2023/10/01 04:16:46;;;;;;;;;;;13.80;99.90;;;;;;5413636;23;19922;-62
2023/10/01 04:19:18;;;;;;;;;;;13.90;99.90;;;;;;5006382;28;19909;-62
2023/10/01 04:21:44;;;;;;;;;;;13.90;99.90;;;;;;4994853;28;20331;-62
2023/10/01 04:24:10;;;;;;;;;;;13.90;99.90;;;;;;4993402;28;19916;-62
2023/10/01 04:26:35;;;;;;;;;;;13.90;99.90;;;;;;4999164;28;20356;-62
2023/10/01 04:29:01;;;;;;;;;;;13.70;99.90;;;;;;4981634;28;19913;-62
2023/10/01 04:31:42;;;;;;;;;;;13.70;99.90;;;;;;4973643;28;20005;-62
2023/10/01 04:34:11;;;;;;;;;;;13.50;99.90;;;;;;4973481;28;19906;-62
2023/10/01 04:36:42;;;;;;;;;;;13.50;99.90;;;;;;4989255;28;19909;-63
2023/10/01 04:39:07;;;;;;;;;;;13.40;99.90;;;;;;5000448;23;19922;-67
2023/10/01 04:41:34;;;;;;;;;;;13.40;99.90;;;;;;4954400;29;20307;-68
2023/10/01 04:44:06;;;;;;;;;;;13.40;99.90;;;;;;4955821;28;20051;-68
2023/10/01 04:46:36;;;;;;;;;;;13.40;99.90;;;;;;4953937;29;19921;-68
2023/10/01 04:49:08;;;;;;;;;;;13.40;99.90;;;;;;4956342;28;19911;-68
2023/10/01 04:51:45;;;;;;;;;;;13.40;99.90;;;;;;4956009;28;19907;-68
2023/10/01 04:54:17;;;;;;;;;;;13.40;99.90;;;;;;4954018;29;19918;-68
2023/10/01 04:56:48;;;;;;;;;;;13.40;99.90;;;;;;4955265;28;19918;-68
2023/10/01 04:59:14;;;;;;;;;;;13.50;99.90;;;;;;4955713;28;20360;-67
2023/10/01 05:01:40;;;;;;;;;;;13.40;99.90;;;;;;4954294;29;20393;-67
2023/10/01 05:04:06;;;;;;;;;;;13.40;99.90;;;;;;4955569;29;20005;-67
2023/10/01 05:06:31;;;;;;;;;;;13.40;99.90;;;;;;4952671;29;19910;-67
2023/10/01 05:08:58;;;;;;;;;;;13.40;99.90;;;;;;4955064;28;20311;-68
2023/10/01 05:11:29;;;;;;;;;;;13.40;99.90;;;;;;4957069;28;19910;-68
2023/10/01 05:13:58;;;;;;;;;;;13.40;99.90;;;;;;4957841;29;19946;-67
2023/10/01 05:16:26;;;;;;;;;;;13.40;99.90;;;;;;4958292;29;19949;-67
2023/10/01 05:19:09;;;;;;;;;;;13.40;99.90;;;;;;4964382;29;19914;-68
2023/10/01 05:21:36;;;;;;;;;;;13.40;99.90;;;;;;4965653;28;19910;-67
2023/10/01 05:24:01;;;;;;;;;;;13.70;99.90;;;;;;4959220;28;19915;-68
2023/10/01 05:26:35;;;;;;;;;;;13.80;99.90;;;;;;4959158;28;20353;-68
2023/10/01 05:29:02;;;;;;;;;;;13.90;99.90;;;;;;4958874;28;19940;-67
2023/10/01 05:31:29;;;;;;;;;;;13.90;99.90;;;;;;4958824;28;19911;-67
2023/10/01 05:33:58;;;;;;;;;;;13.80;99.90;;;;;;4957606;29;20365;-67
2023/10/01 05:36:24;;;;;;;;;;;13.70;99.90;;;;;;4959176;28;19913;-68
2023/10/01 05:38:51;;;;;;;;;;;13.50;99.90;;;;;;4959800;28;20281;-68
2023/10/01 05:41:29;;;;;;;;;;;13.40;99.90;;;;;;4957410;29;19910;-68
2023/10/01 05:44:01;;;;;;;;;;;13.30;99.90;;;;;;4958609;28;19914;-68
2023/10/01 05:46:27;;;;;;;;;;;13.40;99.90;;;;;;4958567;28;19912;-68
2023/10/01 05:48:55;;;;;;;;;;;13.30;99.90;;;;;;4957048;29;19989;-68
2023/10/01 05:51:30;;;;;;;;;;;13.50;99.90;;;;;;4938155;29;19962;-67
2023/10/01 05:53:56;;;;;;;;;;;13.80;99.90;;;;;;4939991;29;19907;-67
2023/10/01 05:56:22;;;;;;;;;;;13.60;99.90;;;;;;4939750;29;19918;-67
2023/10/01 05:58:48;;;;;;;;;;;13.80;99.90;;;;;;4939365;29;20129;-67
2023/10/01 06:01:16;;;;;;;;;;;13.80;99.90;;;;;;4952968;29;19950;-68
2023/10/01 06:03:43;;;;;;;;;;;13.70;99.90;;;;;;4958047;28;20451;-67
2023/10/01 06:06:14;;;;;;;;;;;13.60;99.90;;;;;;4958442;28;19913;-67
2023/10/01 06:08:46;;;;;;;;;;;13.70;99.90;;;;;;4962327;28;19956;-68
2023/10/01 06:11:18;;;;;;;;;;;13.80;99.90;;;;;;4966279;28;19920;-67
2023/10/01 06:13:51;;;;;;;;;;;13.80;99.90;;;;;;4956688;29;20365;-69
2023/10/01 06:16:22;;;;;;;;;;;13.70;99.90;;;;;;4957232;29;19913;-68
2023/10/01 06:18:51;;;;;;;;;;;13.70;99.90;;;;;;4958070;28;19993;-68
2023/10/01 06:21:22;;;;;;;;;;;13.80;99.90;;;;;;4957477;28;19910;-68
2023/10/01 06:23:51;;;;;;;;;;;13.80;99.90;;;;;;4957681;28;19910;-69
2023/10/01 06:26:20;;;;;;;;;;;13.70;99.90;;;;;;4958245;28;19913;-68
2023/10/01 06:28:46;;;;;;;;;;;13.80;99.90;;;;;;4956533;29;19922;-69
2023/10/01 06:31:11;;;;;;;;;;;13.80;99.90;;;;;;4958112;28;19914;-69
2023/10/01 06:33:38;;;;;;;;;;;13.70;99.90;;;;;;4957223;28;20010;-68
2023/10/01 06:36:16;;;;;;;;;;;13.60;99.90;;;;;;4957879;28;19906;-69
2023/10/01 06:38:44;;;;;;;;;;;13.60;99.90;;;;;;4959116;28;20295;-68
2023/10/01 06:41:18;;;;;;;;;;;13.90;99.90;;;;;;4956296;29;20269;-68
2023/10/01 06:43:48;;;;;;;;;;;14.10;99.90;;;;;;4957413;28;19911;-68
2023/10/01 06:46:21;;;;;;;;;;;14.20;99.90;;;;;;4956149;29;19914;-70
2023/10/01 06:48:47;;;;;;;;;;;14.20;99.90;;;;;;4957431;28;19993;-67
2023/10/01 06:51:24;;;;;;;;;;;14.20;99.90;;;;;;4956144;29;19913;-67
2023/10/01 06:53:58;;;;;;;;;;;14.10;99.90;;;;;;4957076;28;19907;-67
2023/10/01 06:56:26;;;;;;;;;;;14.30;99.90;;;;;;4941231;28;19910;-66
2023/10/01 07:01:47;;;;;;;;;;;14.40;99.90;;;;;;4938017;29;19930;-67
2023/10/01 07:04:17;;;;;;;;;;;14.30;99.90;;;;;;4947000;29;19910;-67
2023/10/01 07:06:44;;;;;;;;;;;14.50;99.90;;;;;;4955822;29;19917;-67
2023/10/01 07:09:56;;;;;;;;;;;14.40;99.90;;;;;;4964282;28;19906;-67
2023/10/01 07:11:56;;;;;;;;;;;14.60;99.90;;;;;;4966206;28;19906;-67
2023/10/01 07:14:38;;;;;;;;;;;14.60;99.90;;;;;;4971330;28;20254;-67
2023/10/01 07:17:09;;;;;;;;;;;14.60;99.90;;;;;;4958063;28;20001;-67
2023/10/01 07:19:35;;;;;;;;;;;14.60;99.90;;;;;;4938295;29;20290;-67
2023/10/01 07:22:06;;;;;;;;;;;14.70;99.90;;;;;;4940076;29;19913;-67
2023/10/01 07:24:35;;;;;;;;;;;14.70;99.90;;;;;;4937771;29;19911;-66
2023/10/01 07:27:03;;;;;;;;;;;14.80;99.90;;;;;;4956859;28;19946;-66
2023/10/01 07:29:30;;;;;;;;;;;14.80;99.90;;;;;;4954717;29;19907;-66
2023/10/01 07:31:56;;;;;;;;;;;14.80;99.90;;;;;;4954554;29;20311;-66
2023/10/01 07:34:22;;;;;;;;;;;14.80;99.90;;;;;;4954813;28;19910;-66
2023/10/01 07:36:47;;;;;;;;;;;14.80;99.90;;;;;;4956407;28;19906;-68
2023/10/01 07:39:13;;;;;;;;;;;14.90;99.90;;;;;;4956732;28;19918;-66
2023/10/01 07:41:39;;;;;;;;;;;15.10;99.90;;;;;;4955570;29;19953;-67
2023/10/01 07:44:08;;;;;;;;;;;15.20;99.90;;;;;;4956702;28;19919;-68
2023/10/01 07:46:34;;;;;;;;;;;15.10;99.90;;;;;;4956327;28;19953;-70
2023/10/01 07:49:00;;;;;;;;;;;15.20;99.90;;;;;;4956356;28;20372;-67
2023/10/01 07:51:35;;;;;;;;;;;15.30;99.90;;;;;;4956606;28;19947;-69
2023/10/01 07:54:02;;;;;;;;;;;15.30;99.90;;;;;;4955883;28;19949;-68
2023/10/01 07:56:28;;;;;;;;;;;15.40;99.90;;;;;;4954614;29;19913;-68
2023/10/01 07:59:42;;;;;;;;;;;15.30;99.90;;;;;;4956369;28;19907;-67
2023/10/01 08:01:42;;;;;;;;;;;15.40;99.90;;;;;;4949191;29;19910;-69
2023/10/01 08:04:38;;;;;;;;;;;15.50;99.90;;;;;;4954927;29;20361;-68
2023/10/01 08:07:03;;;;;;;;;;;15.60;99.90;;;;;;4955776;29;19912;-69
2023/10/01 08:09:31;;;;;;;;;;;15.70;99.90;;;;;;4965083;28;20000;-68
2023/10/01 08:12:05;;;;;;;;;;;16.00;99.90;;;;;;4975136;28;19906;-67
2023/10/01 08:14:33;;;;;;;;;;;16.00;99.90;;;;;;4974099;28;19929;-69
2023/10/01 08:17:00;;;;;;;;;;;16.10;99.90;;;;;;4975483;28;19909;-69
2023/10/01 08:19:41;;;;;;;;;;;16.10;99.90;;;;;;4960402;28;19949;-69
2023/10/01 08:22:13;;;;;;;;;;;16.10;99.90;;;;;;4957292;28;19993;-69
2023/10/01 08:24:45;;;;;;;;;;;16.30;99.90;;;;;;4956620;29;20353;-69
2023/10/01 08:27:31;;;;;;;;;;;16.50;99.90;;;;;;4958527;28;19907;-69
2023/10/01 08:30:18;;;;;;;;;;;16.30;99.90;;;;;;4956558;28;19910;-69
2023/10/01 08:32:49;;;;;;;;;;;16.30;99.90;;;;;;4956731;28;19918;-69
2023/10/01 08:35:22;;;;;;;;;;;16.40;99.90;;;;;;4956929;28;19906;-69
2023/10/01 08:37:49;;;;;;;;;;;16.40;99.90;;;;;;4956257;28;20341;-69
2023/10/01 08:40:17;;;;;;;;;;;16.40;99.90;;;;;;4960070;28;20020;-69
2023/10/01 08:42:47;;;;;;;;;;;16.70;99.90;;;;;;4955371;28;19918;-67
2023/10/01 08:45:17;;;;;;;;;;;16.70;99.90;;;;;;4955385;28;19907;-68
2023/10/01 08:47:45;;;;;;;;;;;16.70;99.90;;;;;;4955517;28;20284;-68
2023/10/01 08:52:55;;;;;;;;;;;17.20;99.90;;;;;;4955765;28;20009;-68
2023/10/01 08:55:22;;;;;;;;;;;17.40;99.90;;;;;;4954999;28;19918;-68
2023/10/01 08:57:52;;;;;;;;;;;19.50;99.90;;;;;;4955330;28;19949;-68
2023/10/01 09:00:20;;;;;;;;;;;21.60;99.90;;;;;;4955384;28;19990;-69
2023/10/01 09:02:52;;;;;;;;;;;21.90;99.90;;;;;;4954091;29;19910;-69
2023/10/01 09:05:25;;;;;;;;;;;20.60;99.90;;;;;;4954017;29;19993;-69
2023/10/01 09:10:48;;;;;;;;;;;20.80;99.90;;;;;;4941675;29;20277;-67
2023/10/01 09:13:20;;;;;;;;;;;20.70;99.90;;;;;;4953877;29;20342;-69
2023/10/01 09:15:46;;;;;;;;;;;20.50;99.90;;;;;;4955719;28;19907;-68
2023/10/01 09:18:12;;;;;;;;;;;20.20;99.90;;;;;;4955565;28;20412;-68
2023/10/01 09:23:54;;;;;;;;;;;21.50;99.90;;;;;;4936509;29;19921;-69
2023/10/01 09:26:10;;;;;;;;;;;22.40;99.90;;;;;;4943054;29;19907;-69
2023/10/01 09:28:37;;;;;;;;;;;22.40;99.90;;;;;;4955969;28;20326;-69
2023/10/01 09:33:48;;;;;;;;;;;21.60;99.90;;;;;;4955983;29;19918;-70
2023/10/01 09:36:33;;;;;;;;;;;21.00;99.90;;;;;;4954051;29;19910;-67
2023/10/01 09:39:03;;;;;;;;;;;20.60;99.90;;;;;;4954696;28;19953;-69
2023/10/01 09:41:36;;;;;;;;;;;20.60;99.90;;;;;;4954854;28;19910;-66
2023/10/01 09:44:02;;;;;;;;;;;20.70;99.90;;;;;;4951211;28;20286;-68
2023/10/01 09:46:33;;;;;;;;;;;20.90;99.90;;;;;;4953382;29;19910;-66
2023/10/01 09:49:01;;;;;;;;;;;21.50;99.90;;;;;;4955044;28;19942;-68
2023/10/01 09:51:31;;;;;;;;;;;22.40;99.90;;;;;;4954807;28;20289;-68
2023/10/01 09:54:01;;;;;;;;;;;22.80;99.90;;;;;;4954901;28;19907;-66
2023/10/01 09:56:29;;;;;;;;;;;23.10;99.80;;;;;;4964829;28;19906;-67
2023/10/01 09:59:03;;;;;;;;;;;23.50;98.70;;;;;;4984401;28;19906;-67
2023/10/01 10:01:33;;;;;;;;;;;24.20;97.90;;;;;;4982479;28;19972;-68
2023/10/01 10:04:01;;;;;;;;;;;25.70;95.90;;;;;;4976554;28;19915;-69
2023/10/01 10:06:27;;;;;;;;;;;27.10;94.00;;;;;;4961020;29;19906;-67
2023/10/01 10:09:05;;;;;;;;;;;29.20;92.10;;;;;;4960615;28;19962;-69
2023/10/01 10:11:37;;;;;;;;;;;31.10;88.20;;;;;;4960669;28;19907;-68
2023/10/01 10:14:26;;;;;;;;;;;30.30;87.80;;;;;;4960284;28;20057;-68
2023/10/01 10:17:07;;;;;;;;;;;31.20;84.50;;;;;;4956986;29;19911;-67
2023/10/01 10:19:47;;;;;;;;;;;32.00;82.20;;;;;;4956879;29;19921;-67
2023/10/01 10:22:16;;;;;;;;;;;32.70;79.90;;;;;;4958988;28;19917;-67
2023/10/01 10:24:46;;;;;;;;;;;33.90;77.70;;;;;;4956238;29;19960;-68
2023/10/01 10:27:18;;;;;;;;;;;32.30;77.60;;;;;;4972431;28;19905;-67
2023/10/01 10:29:46;;;;;;;;;;;32.30;78.40;;;;;;4972298;28;20277;-67
2023/10/01 10:32:15;;;;;;;;;;;34.00;75.50;;;;;;4957501;28;19929;-67
2023/10/01 10:35:03;;;;;;;;;;;33.60;73.90;;;;;;4957767;28;19985;-68
2023/10/01 10:37:35;;;;;;;;;;;34.40;74.20;;;;;;4957461;28;20424;-68
2023/10/01 10:40:13;;;;;;;;;;;35.20;71.60;;;;;;4957751;28;19922;-66
2023/10/01 10:43:02;;;;;;;;;;;36.00;70.30;;;;;;4957648;28;19921;-64
2023/10/01 10:45:31;;;;;;;;;;;37.00;68.40;;;;;;4957538;28;19910;-66
2023/10/01 10:48:04;;;;;;;;;;;37.10;66.20;;;;;;4957731;28;20376;-64
2023/10/01 10:50:47;;;;;;;;;;;37.00;65.10;;;;;;4957744;28;19906;-67
2023/10/01 10:53:18;;;;;;;;;;;36.90;65.30;;;;;;4957586;28;19989;-66
2023/10/01 10:55:50;;;;;;;;;;;36.20;65.40;;;;;;4959961;28;19910;-65
2023/10/01 10:58:15;;;;;;;;;;;32.90;67.60;;;;;;4976742;28;19912;-64
2023/10/01 11:00:41;;;;;;;;;;;29.80;72.80;;;;;;4976422;28;20008;-65
2023/10/01 11:03:10;;;;;;;;;;;28.30;76.00;;;;;;4967110;28;19921;-66
2023/10/01 11:05:49;;;;;;;;;;;27.00;79.40;;;;;;4956913;28;19913;-65
2023/10/01 11:08:27;;;;;;;;;;;26.10;80.80;;;;;;4955857;28;19912;-65
2023/10/01 11:10:54;;;;;;;;;;;25.50;82.00;;;;;;4956624;28;19903;-65
2023/10/01 11:13:38;;;;;;;;;;;24.90;84.10;;;;;;4956650;28;19910;-69
2023/10/01 11:16:14;;;;;;;;;;;24.40;85.80;;;;;;4956770;28;19910;-68
2023/10/01 11:18:47;;;;;;;;;;;24.00;87.10;;;;;;4956737;28;19906;-69
2023/10/01 11:21:31;;;;;;;;;;;23.70;88.60;;;;;;4955834;29;19930;-67
2023/10/01 11:24:00;;;;;;;;;;;23.40;89.30;;;;;;4958562;28;19915;-66
2023/10/01 11:26:26;;;;;;;;;;;23.30;90.00;;;;;;4969710;28;19906;-65
2023/10/01 11:28:52;;;;;;;;;;;22.90;90.30;;;;;;4958342;28;19921;-66
2023/10/01 11:31:24;;;;;;;;;;;22.80;91.00;;;;;;4957074;28;19906;-67
2023/10/01 11:33:57;;;;;;;;;;;22.70;91.00;;;;;;4956491;28;19906;-67
2023/10/01 11:36:23;;;;;;;;;;;22.70;91.30;;;;;;4956572;28;20332;-67
2023/10/01 11:38:50;;;;;;;;;;;22.60;91.70;;;;;;4956409;28;19966;-65
2023/10/01 11:41:18;;;;;;;;;;;22.40;91.90;;;;;;4956001;28;20392;-67
2023/10/01 11:43:59;;;;;;;;;;;22.50;92.60;;;;;;4956297;28;20369;-66
2023/10/01 11:46:25;;;;;;;;;;;22.60;92.30;;;;;;4955245;29;19911;-66
2023/10/01 11:49:02;;;;;;;;;;;22.60;92.20;;;;;;4956620;28;19951;-68
2023/10/01 11:51:50;;;;;;;;;;;22.70;92.20;;;;;;4956540;28;19910;-67
2023/10/01 11:54:17;;;;;;;;;;;22.80;92.20;;;;;;4954827;29;20006;-68
2023/10/01 11:56:47;;;;;;;;;;;22.70;92.40;;;;;;4967104;28;19945;-68
2023/10/01 11:59:19;;;;;;;;;;;22.70;92.60;;;;;;4967966;28;19917;-67
2023/10/01 12:01:49;;;;;;;;;;;22.80;92.50;;;;;;4943591;29;19937;-67
2023/10/01 12:04:21;;;;;;;;;;;22.80;92.60;;;;;;4951018;28;19962;-67
2023/10/01 12:06:51;;;;;;;;;;;22.90;92.50;;;;;;4950461;29;19910;-69
2023/10/01 12:09:18;;;;;;;;;;;22.80;92.40;;;;;;4955812;28;19993;-66
2023/10/01 12:12:02;;;;;;;;;;;22.70;92.50;;;;;;4950997;28;20277;-67
2023/10/01 12:14:28;;;;;;;;;;;22.70;92.80;;;;;;4953148;29;20037;-67
2023/10/01 12:16:56;;;;;;;;;;;22.90;92.50;;;;;;4955469;28;19907;-67
2023/10/01 12:19:24;;;;;;;;;;;22.90;92.80;;;;;;4955013;28;19969;-66
2023/10/01 12:22:05;;;;;;;;;;;23.10;92.80;;;;;;4955548;28;19948;-66
2023/10/01 12:24:39;;;;;;;;;;;23.20;92.60;;;;;;4955521;28;19937;-66
2023/10/01 12:27:07;;;;;;;;;;;23.30;92.90;;;;;;4970097;28;19938;-66
2023/10/01 12:29:42;;;;;;;;;;;23.20;92.70;;;;;;4955239;29;19989;-65
2023/10/01 12:32:11;;;;;;;;;;;23.20;93.30;;;;;;4956125;28;19922;-64
2023/10/01 12:34:37;;;;;;;;;;;23.20;93.00;;;;;;4956255;28;19914;-63
2023/10/01 12:37:07;;;;;;;;;;;23.10;92.50;;;;;;4955751;28;19911;-64
2023/10/01 12:39:34;;;;;;;;;;;23.10;93.00;;;;;;4955926;28;19921;-64
2023/10/01 12:42:04;;;;;;;;;;;23.10;92.70;;;;;;4957577;28;19913;-67
2023/10/01 12:44:34;;;;;;;;;;;23.20;92.50;;;;;;4957511;28;19912;-67
2023/10/01 12:47:00;;;;;;;;;;;23.30;92.40;;;;;;4956017;28;19953;-66
2023/10/01 12:49:26;;;;;;;;;;;23.30;92.50;;;;;;4954889;29;19914;-68
2023/10/01 12:51:54;;;;;;;;;;;23.30;92.60;;;;;;4955225;28;20010;-67
2023/10/01 12:54:24;;;;;;;;;;;23.40;93.20;;;;;;4955215;28;19957;-67
2023/10/01 12:57:02;;;;;;;;;;;23.40;92.80;;;;;;4967069;28;20278;-58
2023/10/01 12:59:38;;;;;;;;;;;23.50;92.80;;;;;;4971322;28;19948;-63
2023/10/01 13:02:04;;;;;;;;;;;23.50;93.40;;;;;;4955097;28;19921;-63
2023/10/01 13:04:32;;;;;;;;;;;23.50;92.70;;;;;;4955139;28;19917;-63
2023/10/01 13:07:07;;;;;;;;;;;23.50;92.40;;;;;;4953981;29;19914;-63
2023/10/01 13:12:14;;;;;;;;;;;23.60;92.70;;;;;;4955092;28;19910;-62
2023/10/01 13:14:43;;;;;;;;;;;23.60;93.50;;;;;;4955245;28;19949;-63
2023/10/01 13:17:19;;;;;;;;;;;23.50;93.40;;;;;;4955227;28;19961;-63
2023/10/01 13:19:48;;;;;;;;;;;23.60;93.60;;;;;;4955154;28;20001;-63
2023/10/01 13:22:16;;;;;;;;;;;23.50;92.50;;;;;;4954504;28;20284;-64
2023/10/01 13:24:53;;;;;;;;;;;23.50;93.10;;;;;;4955122;28;19906;-63
2023/10/01 13:27:22;;;;;;;;;;;23.50;92.40;;;;;;4970657;28;19906;-63
2023/10/01 13:29:49;;;;;;;;;;;23.50;93.90;;;;;;4974094;28;20076;-62
2023/10/01 13:32:15;;;;;;;;;;;23.50;93.10;;;;;;4967820;28;19910;-62
2023/10/01 13:34:54;;;;;;;;;;;23.40;93.20;;;;;;4958381;28;19906;-62
2023/10/01 13:40:19;;;;;;;;;;;23.50;93.50;;;;;;4957977;28;20392;-63
2023/10/01 14:08:43;;;;;;;;;;;23.80;93.00;;;;;;4958289;29;19914;-63
2023/10/01 14:10:21;;;;;;;;;;;23.50;94.00;;;;;;4938769;29;19917;-67
2023/10/01 14:12:56;;;;;;;;;;;23.60;93.50;;;;;;4938623;29;19906;-65
2023/10/01 14:15:22;;;;;;;;;;;23.60;93.50;;;;;;4939078;29;19907;-65
2023/10/01 14:17:52;;;;;;;;;;;23.60;93.50;;;;;;4953343;29;19911;-65
2023/10/01 14:20:37;;;;;;;;;;;23.60;93.50;;;;;;4958135;28;19965;-65
2023/10/01 14:23:10;;;;;;;;;;;23.80;92.90;;;;;;4957837;28;19910;-67
2023/10/01 14:25:52;;;;;;;;;;;23.80;93.10;;;;;;4961158;28;19913;-66
2023/10/01 14:28:25;;;;;;;;;;;24.00;92.80;;;;;;4942632;28;19910;-66
2023/10/01 14:30:58;;;;;;;;;;;23.90;93.00;;;;;;4941188;28;19907;-66
2023/10/01 14:33:27;;;;;;;;;;;23.90;92.80;;;;;;4938516;29;20048;-66
2023/10/01 14:35:54;;;;;;;;;;;23.70;92.90;;;;;;4938881;29;20054;-65
2023/10/01 14:38:21;;;;;;;;;;;23.60;93.30;;;;;;4938356;29;20313;-65
2023/10/01 14:40:56;;;;;;;;;;;23.50;93.40;;;;;;4939356;29;19914;-65
2023/10/01 14:43:24;;;;;;;;;;;23.40;93.80;;;;;;4938535;29;19918;-65
2023/10/01 14:45:51;;;;;;;;;;;23.30;94.00;;;;;;4948867;29;19911;-67
2023/10/01 14:48:17;;;;;;;;;;;23.20;93.70;;;;;;4957901;28;19946;-67
2023/10/01 14:50:42;;;;;;;;;;;23.20;93.80;;;;;;4956221;28;20326;-66
2023/10/01 14:53:08;;;;;;;;;;;23.10;94.00;;;;;;4957488;28;19910;-66
2023/10/01 14:55:40;;;;;;;;;;;23.10;93.80;;;;;;4957442;28;20285;-65
2023/10/01 14:58:15;;;;;;;;;;;23.10;94.10;;;;;;4957922;28;19906;-65
2023/10/01 15:00:57;;;;;;;;;;;23.10;94.20;;;;;;4956950;28;19911;-67
2023/10/01 15:03:35;;;;;;;;;;;23.00;94.40;;;;;;4956866;28;19914;-66
2023/10/01 15:06:01;;;;;;;;;;;22.90;94.50;;;;;;4957159;28;19906;-66
2023/10/01 15:08:29;;;;;;;;;;;22.90;95.00;;;;;;4956974;28;19982;-67
2023/10/01 15:10:58;;;;;;;;;;;23.00;94.40;;;;;;4956610;28;19948;-67
2023/10/01 15:13:35;;;;;;;;;;;23.10;94.20;;;;;;4956223;28;19957;-67
2023/10/01 15:16:02;;;;;;;;;;;23.20;94.20;;;;;;4957070;28;19918;-67
2023/10/01 15:18:28;;;;;;;;;;;23.20;94.30;;;;;;4956935;28;19906;-66
2023/10/01 15:20:54;;;;;;;;;;;23.30;94.20;;;;;;4956838;28;20026;-67
2023/10/01 15:23:20;;;;;;;;;;;23.20;94.80;;;;;;4958326;28;20020;-68
2023/10/01 15:25:46;;;;;;;;;;;23.00;94.50;;;;;;4961843;28;19938;-67
2023/10/01 15:28:15;;;;;;;;;;;23.00;94.80;;;;;;4978290;28;19906;-67
2023/10/01 15:30:47;;;;;;;;;;;22.90;95.10;;;;;;4965739;28;20358;-68
2023/10/01 15:33:16;;;;;;;;;;;22.90;95.00;;;;;;4956232;28;20001;-67
2023/10/01 15:35:48;;;;;;;;;;;22.80;95.10;;;;;;4956193;28;20366;-67
2023/10/01 15:38:26;;;;;;;;;;;23.00;94.70;;;;;;4956161;28;20384;-67
2023/10/01 15:40:53;;;;;;;;;;;22.90;95.10;;;;;;4956313;28;19915;-66
2023/10/01 15:43:20;;;;;;;;;;;22.80;95.10;;;;;;4956174;28;20273;-67
2023/10/01 15:45:46;;;;;;;;;;;22.70;95.40;;;;;;4956327;28;19906;-66
2023/10/01 15:48:17;;;;;;;;;;;22.60;96.20;;;;;;4956138;28;20313;-66
2023/10/01 15:50:46;;;;;;;;;;;22.50;96.10;;;;;;4956418;28;19911;-67
2023/10/01 15:53:21;;;;;;;;;;;22.40;96.00;;;;;;4956107;28;19906;-68
2023/10/01 15:55:56;;;;;;;;;;;22.40;96.30;;;;;;4957491;28;19910;-67
2023/10/01 15:58:25;;;;;;;;;;;22.40;96.10;;;;;;4955876;28;19942;-67
2023/10/01 16:00:55;;;;;;;;;;;22.30;96.70;;;;;;4956205;28;19907;-68
2023/10/01 16:03:30;;;;;;;;;;;22.30;96.50;;;;;;4956023;28;19949;-66
2023/10/01 16:05:56;;;;;;;;;;;22.30;96.70;;;;;;4956039;28;19910;-66
2023/10/01 16:08:22;;;;;;;;;;;22.20;96.60;;;;;;4955903;28;19937;-67
2023/10/01 16:10:58;;;;;;;;;;;22.20;96.70;;;;;;4956473;28;20350;-66
2023/10/01 16:13:28;;;;;;;;;;;22.10;96.70;;;;;;4955986;28;19911;-66
2023/10/01 16:16:13;;;;;;;;;;;22.10;96.90;;;;;;4955392;28;19993;-66
2023/10/01 16:18:41;;;;;;;;;;;22.00;96.90;;;;;;4955774;28;19997;-66
2023/10/01 16:21:11;;;;;;;;;;;22.00;97.20;;;;;;4956094;28;19906;-66
2023/10/01 16:23:38;;;;;;;;;;;21.90;97.30;;;;;;4954131;29;19918;-67
2023/10/01 16:26:13;;;;;;;;;;;21.90;97.30;;;;;;4961214;28;20369;-65
2023/10/01 16:28:40;;;;;;;;;;;21.80;97.30;;;;;;4973793;28;19908;-63
2023/10/01 16:31:06;;;;;;;;;;;21.70;97.50;;;;;;4955632;28;20266;-64
2023/10/01 16:33:41;;;;;;;;;;;21.70;98.00;;;;;;4955578;28;20368;-64
2023/10/01 16:36:07;;;;;;;;;;;21.60;98.00;;;;;;4955478;28;19906;-64
2023/10/01 16:38:33;;;;;;;;;;;21.50;98.20;;;;;;4955163;28;19977;-63
2023/10/01 16:40:59;;;;;;;;;;;21.50;98.40;;;;;;4954979;28;19910;-65
2023/10/01 16:43:32;;;;;;;;;;;21.50;98.50;;;;;;4955167;28;20365;-66
2023/10/01 16:46:01;;;;;;;;;;;21.40;98.90;;;;;;4955277;28;19940;-65
2023/10/01 16:48:29;;;;;;;;;;;21.40;98.80;;;;;;4955314;28;20357;-65
2023/10/01 16:53:45;;;;;;;;;;;21.30;98.80;;;;;;4955858;28;19906;-66
2023/10/01 16:56:24;;;;;;;;;;;21.30;98.90;;;;;;4962270;28;19910;-66
2023/10/01 16:58:54;;;;;;;;;;;21.20;99.20;;;;;;4974287;28;19972;-66
2023/10/01 17:01:25;;;;;;;;;;;21.10;99.40;;;;;;4956160;28;19925;-68
2023/10/01 17:04:13;;;;;;;;;;;21.10;99.60;;;;;;4956003;28;19973;-68
2023/10/01 17:06:39;;;;;;;;;;;21.00;99.60;;;;;;4956780;28;19917;-69
2023/10/01 17:09:06;;;;;;;;;;;20.90;99.70;;;;;;4959303;28;19918;-68
2023/10/01 17:11:33;;;;;;;;;;;20.90;99.80;;;;;;4958841;28;19910;-69
2023/10/01 17:14:11;;;;;;;;;;;20.80;99.90;;;;;;4960198;28;20357;-70
2023/10/01 17:16:40;;;;;;;;;;;20.80;99.90;;;;;;4959593;28;19949;-69
2023/10/01 17:19:08;;;;;;;;;;;20.80;99.90;;;;;;4957811;29;20285;-69
2023/10/01 17:21:37;;;;;;;;;;;20.70;99.90;;;;;;4959092;28;19976;-69
2023/10/01 17:24:09;;;;;;;;;;;20.70;99.90;;;;;;4958772;28;19914;-69
2023/10/01 17:26:48;;;;;;;;;;;20.60;99.90;;;;;;4964871;28;19906;-68
2023/10/01 17:29:29;;;;;;;;;;;20.50;99.90;;;;;;4970147;28;19907;-68
2023/10/01 17:32:04;;;;;;;;;;;20.50;99.90;;;;;;4964603;29;19913;-68
2023/10/01 17:34:31;;;;;;;;;;;20.50;99.90;;;;;;4959316;28;20287;-68
2023/10/01 17:37:07;;;;;;;;;;;20.40;99.90;;;;;;4959036;28;19913;-68
2023/10/01 17:39:33;;;;;;;;;;;20.30;99.90;;;;;;4958003;28;19918;-68
2023/10/01 17:42:01;;;;;;;;;;;20.30;99.90;;;;;;4958490;28;19906;-67
2023/10/01 17:44:28;;;;;;;;;;;20.30;99.90;;;;;;4958871;28;19910;-68
2023/10/01 17:46:56;;;;;;;;;;;20.20;99.90;;;;;;4959214;29;20427;-68
2023/10/01 17:49:28;;;;;;;;;;;20.20;99.90;;;;;;4958526;28;20413;-68
2023/10/01 17:51:59;;;;;;;;;;;20.10;99.90;;;;;;4940918;28;19914;-68
2023/10/01 17:54:25;;;;;;;;;;;20.10;99.90;;;;;;4939819;29;19907;-68
2023/10/01 17:56:51;;;;;;;;;;;20.10;99.90;;;;;;4947170;29;20369;-68
2023/10/01 17:59:18;;;;;;;;;;;20.00;99.90;;;;;;4958375;28;20274;-68
2023/10/01 18:02:04;;;;;;;;;;;20.00;99.90;;;;;;4959895;28;19949;-69
2023/10/01 18:04:35;;;;;;;;;;;20.00;99.90;;;;;;4955386;29;19921;-68
2023/10/01 18:07:18;;;;;;;;;;;19.90;99.90;;;;;;4961669;28;19913;-68
2023/10/01 18:09:51;;;;;;;;;;;19.90;99.90;;;;;;4961935;28;19910;-69
2023/10/01 18:12:29;;;;;;;;;;;19.80;99.90;;;;;;4959395;28;19913;-68
2023/10/01 18:14:57;;;;;;;;;;;19.80;99.90;;;;;;4957664;29;19942;-68
2023/10/01 18:17:23;;;;;;;;;;;19.70;99.90;;;;;;4956349;28;19958;-69
2023/10/01 18:19:50;;;;;;;;;;;19.80;99.90;;;;;;4956326;29;19962;-67
2023/10/01 18:22:25;;;;;;;;;;;19.70;99.90;;;;;;4957809;28;20285;-67
2023/10/01 18:25:00;;;;;;;;;;;19.60;99.90;;;;;;4957462;28;19937;-67
2023/10/01 18:27:26;;;;;;;;;;;19.60;99.90;;;;;;4951069;28;19906;-67
2023/10/01 18:29:57;;;;;;;;;;;19.60;99.90;;;;;;4938886;29;19927;-67
2023/10/01 18:32:22;;;;;;;;;;;19.60;99.90;;;;;;4954187;29;19914;-68
2023/10/01 18:34:49;;;;;;;;;;;19.50;99.90;;;;;;4957617;28;20042;-69
2023/10/01 18:37:15;;;;;;;;;;;19.50;99.90;;;;;;4971596;28;20369;-70
2023/10/01 18:39:42;;;;;;;;;;;19.40;99.90;;;;;;4957689;28;19969;-69
2023/10/01 18:42:08;;;;;;;;;;;19.40;99.90;;;;;;4972712;28;19934;-69
2023/10/01 18:44:33;;;;;;;;;;;19.40;99.90;;;;;;4976536;28;19968;-69
2023/10/01 18:46:59;;;;;;;;;;;19.40;99.90;;;;;;4976723;28;19997;-71
2023/10/01 18:49:25;;;;;;;;;;;19.40;99.90;;;;;;4968653;28;19919;-69
2023/10/01 18:51:51;;;;;;;;;;;19.40;99.90;;;;;;4955938;29;19910;-69
2023/10/01 18:54:19;;;;;;;;;;;19.40;99.90;;;;;;4957588;28;19910;-69
2023/10/01 18:56:46;;;;;;;;;;;19.30;99.90;;;;;;4958559;28;20377;-69
2023/10/01 18:59:11;;;;;;;;;;;19.30;99.90;;;;;;4957571;28;19914;-70
2023/10/01 19:01:37;;;;;;;;;;;19.30;99.90;;;;;;4957100;28;19906;-69
2023/10/01 19:04:09;;;;;;;;;;;19.20;99.90;;;;;;4959721;28;19941;-70
2023/10/01 19:06:35;;;;;;;;;;;19.20;99.90;;;;;;4956124;29;19921;-69
2023/10/01 19:09:01;;;;;;;;;;;19.20;99.90;;;;;;4955437;29;20369;-68
2023/10/01 19:11:29;;;;;;;;;;;19.20;99.90;;;;;;4956989;28;19934;-70
2023/10/01 19:13:55;;;;;;;;;;;19.10;99.90;;;;;;4957037;28;20404;-70
2023/10/01 19:16:21;;;;;;;;;;;19.10;99.90;;;;;;4965615;28;19938;-70
2023/10/01 19:18:52;;;;;;;;;;;19.10;99.90;;;;;;4975075;28;20485;-70
2023/10/01 19:21:20;;;;;;;;;;;19.00;99.90;;;;;;4969153;28;19914;-70
2023/10/01 19:23:54;;;;;;;;;;;19.00;99.90;;;;;;4966575;28;19922;-69
2023/10/01 19:26:21;;;;;;;;;;;19.00;99.90;;;;;;4956911;28;19907;-70
2023/10/01 19:28:46;;;;;;;;;;;19.00;99.90;;;;;;4956744;28;19917;-69
2023/10/01 19:31:12;;;;;;;;;;;18.90;99.90;;;;;;4970030;28;19909;-70
2023/10/01 19:33:38;;;;;;;;;;;18.90;99.90;;;;;;4976071;28;19907;-70
2023/10/01 19:38:38;;;;;;;;;;;18.80;99.90;;;;;;4965626;28;19922;-68
2023/10/01 19:41:04;;;;;;;;;;;18.80;99.90;;;;;;4957277;28;19906;-67